Time;durP1;ratioP1;P1;durP2;ratioP2;P2;SDS_P1;SDS_P2;PMS_P1;PMS_P2;Temp;Humidity;BMP_temperature;BMP_pressure;BME280_temperature;BME280_humidity;BME280_pressure;Samples;Min_cycle;Max_cycle;Signal;HPM_P1;HPM_P2
2022/06/14 00:01:21;;;;;;;19.50;15.48;;;;;;;18.52;74.07;99231.22;5031122;28;20038;-63
2022/06/14 00:03:47;;;;;;;20.65;16.83;;;;;;;18.55;74.79;99213.72;5031040;28;20108;-64
2022/06/14 00:06:15;;;;;;;21.77;16.08;;;;;;;18.55;74.36;99216.41;5030763;28;20477;-63
2022/06/14 00:08:41;;;;;;;19.58;17.48;;;;;;;18.56;74.57;99218.97;5030777;28;20039;-64
2022/06/14 00:11:34;;;;;;;20.17;16.90;;;;;;;18.73;74.31;99221.44;5031275;28;20406;-64
2022/06/14 00:14:01;;;;;;;20.25;17.42;;;;;;;18.64;73.97;99218.81;5018496;28;20041;-63
2022/06/14 00:16:28;;;;;;;21.88;18.05;;;;;;;18.51;74.25;99195.13;5030566;28;20113;-63
2022/06/14 00:18:54;;;;;;;18.85;16.20;;;;;;;18.71;74.26;99218.91;5030946;28;20033;-65
2022/06/14 00:21:20;;;;;;;21.95;17.23;;;;;;;18.58;74.16;99202.50;5030934;28;20051;-63
2022/06/14 00:23:47;;;;;;;20.75;17.13;;;;;;;18.59;73.99;99199.59;5030123;28;20047;-63
2022/06/14 00:26:12;;;;;;;23.80;17.13;;;;;;;18.78;74.04;99222.53;5030356;28;20029;-64
2022/06/14 00:28:40;;;;;;;18.77;16.50;;;;;;;18.80;73.86;99225.06;5030053;28;20035;-64
2022/06/14 00:31:10;;;;;;;21.83;16.60;;;;;;;18.83;73.76;99218.41;5030404;28;20084;-64
2022/06/14 00:33:36;;;;;;;19.92;17.05;;;;;;;18.80;73.64;99220.44;5030667;28;20029;-64
2022/06/14 00:36:08;;;;;;;20.02;16.60;;;;;;;18.84;73.48;99226.34;5030199;28;20432;-63
2022/06/14 00:38:35;;;;;;;19.38;16.83;;;;;;;18.83;73.54;99218.41;5030534;28;20439;-63
2022/06/14 00:41:02;;;;;;;20.90;17.52;;;;;;;18.82;73.74;99223.00;5030248;28;20047;-64
2022/06/14 00:43:29;;;;;;;18.70;16.70;;;;;;;18.87;73.51;99219.72;5029485;28;20037;-65
2022/06/14 00:46:11;;;;;;;18.98;16.88;;;;;;;18.92;73.35;99209.09;5030968;28;20037;-63
2022/06/14 00:48:38;;;;;;;22.02;16.40;;;;;;;18.90;73.38;99214.72;5030385;28;20128;-64
2022/06/14 00:51:10;;;;;;;19.70;17.60;;;;;;;18.94;73.02;99215.19;5030259;28;20477;-64
2022/06/14 00:54:02;;;;;;;22.00;17.27;;;;;;;19.03;73.01;99214.03;5030686;28;20091;-64
2022/06/14 00:56:35;;;;;;;21.67;17.08;;;;;;;18.95;72.85;99211.44;5029538;28;20107;-63
2022/06/14 00:59:08;;;;;;;22.42;18.88;;;;;;;18.97;73.27;99205.81;5030409;28;20434;-63
2022/06/14 01:01:37;;;;;;;19.80;16.95;;;;;;;18.92;73.26;99211.81;5030817;28;20096;-63
2022/06/14 01:04:14;;;;;;;21.75;16.88;;;;;;;18.95;73.31;99206.00;5030185;28;20034;-63
2022/06/14 01:06:43;;;;;;;18.17;16.23;;;;;;;18.94;72.86;99209.75;5029964;28;20087;-64
2022/06/14 01:09:14;;;;;;;22.00;17.70;;;;;;;19.02;73.05;99215.06;5030814;28;20104;-62
2022/06/14 01:11:42;;;;;;;19.40;17.30;;;;;;;19.04;73.01;99213.00;5030368;28;20031;-64
2022/06/14 01:14:10;;;;;;;20.48;16.83;;;;;;;19.03;72.71;99214.03;5030250;28;20052;-64
2022/06/14 01:16:37;;;;;;;17.40;15.38;;;;;;;19.04;72.57;99215.72;5029844;28;20424;-63
2022/06/14 01:19:09;;;;;;;17.33;15.20;;;;;;;19.13;72.09;99221.03;5030982;28;20029;-63
2022/06/14 01:21:34;;;;;;;18.95;16.58;;;;;;;19.10;72.31;99211.38;5030178;28;20029;-63
2022/06/14 01:23:59;;;;;;;20.23;16.10;;;;;;;18.97;71.93;99176.81;5030343;28;20053;-64
2022/06/14 01:26:27;;;;;;;21.00;16.77;;;;;;;19.22;71.95;99211.69;5030713;28;20045;-64
2022/06/14 01:28:57;;;;;;;23.05;16.92;;;;;;;19.27;71.85;99220.09;5030464;28;20060;-65
2022/06/14 01:31:25;;;;;;;22.08;17.10;;;;;;;19.26;71.89;99223.00;5030125;28;20041;-65
2022/06/14 01:33:56;;;;;;;18.67;15.82;;;;;;;19.32;71.68;99224.94;5030031;28;20136;-64
2022/06/14 01:36:36;;;;;;;20.27;16.52;;;;;;;19.39;71.30;99227.72;5030152;28;20455;-64
2022/06/14 01:39:05;;;;;;;19.83;16.48;;;;;;;19.39;71.43;99220.41;5030590;28;20048;-63
2022/06/14 01:41:49;;;;;;;21.10;16.67;;;;;;;19.51;71.23;99226.13;5029958;28;20108;-65
2022/06/14 01:44:37;;;;;;;21.55;18.65;;;;;;;19.63;70.80;99221.00;5030178;28;20108;-64
2022/06/14 01:47:22;;;;;;;18.90;16.48;;;;;;;19.65;70.58;99217.06;5030987;28;20461;-65
2022/06/14 01:52:52;;;;;;;20.10;17.27;;;;;;;19.82;70.19;99221.34;5029741;28;20049;-64
2022/06/14 01:55:24;;;;;;;19.60;17.42;;;;;;;19.87;69.63;99235.16;5030409;28;20068;-63
2022/06/14 01:57:59;;;;;;;21.00;18.73;;;;;;;19.73;69.33;99197.06;5029826;28;20033;-65
2022/06/14 02:00:32;;;;;;;23.30;20.70;;;;;;;20.00;69.24;99235.28;5029943;28;20494;-64
2022/06/14 02:06:13;;;;;;;19.38;16.70;;;;;;;20.13;68.50;99236.38;5028691;28;20078;-65
2022/06/14 02:08:49;;;;;;;22.48;17.30;;;;;;;20.10;68.50;99232.19;5032387;28;20470;-64
2022/06/14 02:11:22;;;;;;;20.58;18.38;;;;;;;20.14;68.36;99240.78;5033335;28;20029;-63
2022/06/14 02:13:52;;;;;;;19.80;17.25;;;;;;;19.99;68.10;99211.00;5033246;28;20481;-63
2022/06/14 02:16:27;;;;;;;21.30;16.98;;;;;;;20.28;68.16;99244.41;5033685;28;20037;-63
2022/06/14 02:19:31;;;;;;;21.67;17.00;;;;;;;20.39;68.32;99235.66;5031483;28;20485;-65
2022/06/14 02:22:21;;;;;;;22.50;17.35;;;;;;;20.41;67.45;99240.91;5032330;28;20485;-63
2022/06/14 02:24:48;;;;;;;19.25;16.10;;;;;;;20.45;66.63;99237.56;5032389;28;20056;-64
2022/06/14 02:27:22;;;;;;;21.33;16.92;;;;;;;20.61;66.09;99238.25;5032946;28;20069;-64
2022/06/14 02:30:01;;;;;;;20.60;16.50;;;;;;;20.80;66.02;99242.09;5033098;28;20033;-65
2022/06/14 02:32:42;;;;;;;19.38;17.08;;;;;;;20.96;65.23;99232.72;5032711;28;20574;-63
2022/06/14 02:35:19;;;;;;;23.38;16.48;;;;;;;21.10;64.42;99233.59;5033111;28;20038;-63
2022/06/14 02:37:49;;;;;;;18.40;15.45;;;;;;;21.22;62.96;99231.94;5032570;28;20022;-64
2022/06/14 02:40:22;;;;;;;19.50;16.60;;;;;;;21.45;62.87;99230.66;5032924;28;20080;-63
2022/06/14 02:43:02;;;;;;;18.80;15.57;;;;;;;21.67;62.29;99227.75;5032938;28;20021;-63
2022/06/14 02:45:37;;;;;;;18.10;15.65;;;;;;;21.78;61.52;99218.09;5032449;28;20099;-63
2022/06/14 02:48:06;;;;;;;19.92;16.95;;;;;;;21.73;61.08;99193.38;5033404;28;20469;-63
2022/06/14 02:50:42;;;;;;;22.20;16.65;;;;;;;21.88;60.83;99226.66;5032652;28;20473;-65
2022/06/14 02:53:10;;;;;;;20.63;16.20;;;;;;;21.81;61.15;99231.28;5032180;28;20038;-63
2022/06/14 02:55:43;;;;;;;22.92;16.35;;;;;;;21.76;61.38;99222.94;5031366;28;20038;-63
2022/06/14 02:58:20;;;;;;;19.88;16.88;;;;;;;21.73;61.45;99221.47;5032645;28;20033;-63
2022/06/14 03:00:54;;;;;;;18.50;16.13;;;;;;;21.69;61.20;99219.34;5031945;28;20045;-62
2022/06/14 03:03:44;;;;;;;20.83;16.80;;;;;;;21.75;61.51;99222.06;5032490;28;20532;-63
2022/06/14 03:06:27;;;;;;;19.25;15.30;;;;;;;21.88;61.11;99218.50;5032701;28;20065;-62
2022/06/14 03:09:04;;;;;;;18.40;16.45;;;;;;;21.91;61.07;99220.78;5032177;28;20032;-63
2022/06/14 03:11:41;;;;;;;18.83;16.92;;;;;;;22.02;60.20;99219.28;5032497;28;20489;-64
2022/06/14 03:14:34;;;;;;;22.48;17.80;;;;;;;22.47;59.50;99226.72;5033251;28;20041;-65
2022/06/14 03:17:30;;;;;;;20.02;17.50;;;;;;;22.82;58.46;99216.47;5032125;28;20177;-63
2022/06/14 03:20:48;;;;;;;19.90;17.10;;;;;;;23.51;56.52;99227.53;5031293;28;20072;-64
2022/06/14 03:23:37;;;;;;;25.77;18.38;;;;;;;24.15;54.41;99216.41;5029833;28;20049;-63
2022/06/14 03:26:13;;;;;;;19.63;16.63;;;;;;;24.72;52.86;99217.16;5031377;28;20493;-64
2022/06/14 03:28:50;;;;;;;21.00;17.45;;;;;;;25.37;50.78;99224.63;5032254;28;20497;-63
2022/06/14 03:31:27;;;;;;;21.80;18.65;;;;;;;26.03;49.03;99220.09;5031163;28;20048;-64
2022/06/14 03:34:01;;;;;;;20.77;18.05;;;;;;;26.65;47.66;99218.66;5032439;28;20531;-65
2022/06/14 03:36:28;;;;;;;21.23;18.20;;;;;;;27.08;45.88;99211.78;5031667;28;20064;-64
2022/06/14 03:38:59;;;;;;;22.50;18.02;;;;;;;27.51;45.04;99216.91;5031809;28;20029;-64
2022/06/14 03:41:30;;;;;;;21.10;18.80;;;;;;;27.76;44.10;99221.13;5032380;28;20025;-64
2022/06/14 03:43:58;;;;;;;21.88;18.52;;;;;;;27.89;43.42;99212.50;5032132;28;20025;-65
2022/06/14 03:46:44;;;;;;;20.77;18.67;;;;;;;28.12;43.48;99220.78;5031852;28;20393;-65
2022/06/14 03:49:13;;;;;;;20.85;18.55;;;;;;;28.20;42.74;99212.91;5031851;28;20033;-65
2022/06/14 03:51:54;;;;;;;21.80;18.73;;;;;;;28.49;42.68;99220.16;5032405;28;20029;-65
2022/06/14 03:54:47;;;;;;;21.67;18.52;;;;;;;28.65;42.90;99221.16;5031651;28;20037;-65
2022/06/14 03:58:00;;;;;;;21.50;18.83;;;;;;;28.78;43.16;99223.50;5031001;28;20049;-63
2022/06/14 04:00:43;;;;;;;22.77;18.65;;;;;;;28.75;41.09;99224.03;5029322;28;20035;-64
2022/06/14 04:03:21;;;;;;;19.98;17.85;;;;;;;28.86;40.57;99222.25;5031995;28;20095;-65
2022/06/14 04:06:02;;;;;;;20.25;17.70;;;;;;;29.41;40.23;99224.13;5030967;28;20041;-63
2022/06/14 04:08:51;;;;;;;21.00;17.75;;;;;;;29.96;39.34;99219.25;5030990;28;20030;-64
2022/06/14 04:11:38;;;;;;;20.52;18.38;;;;;;;30.12;38.37;99228.47;5031698;28;20492;-64
2022/06/14 04:14:28;;;;;;;20.75;18.65;;;;;;;30.83;36.93;99220.72;5030865;28;20040;-65
2022/06/14 04:17:03;;;;;;;23.17;18.77;;;;;;;31.07;36.03;99215.50;5030884;28;20034;-65
2022/06/14 04:19:49;;;;;;;19.35;15.52;;;;;;;31.53;35.16;99227.69;5030766;28;20041;-64
2022/06/14 04:22:33;;;;;;;19.05;16.92;;;;;;;31.97;33.98;99214.34;5030819;28;20032;-64
2022/06/14 04:25:05;;;;;;;18.90;16.58;;;;;;;32.02;34.62;99214.34;5030932;28;20064;-65
2022/06/14 04:27:39;;;;;;;21.50;18.08;;;;;;;32.01;34.22;99219.06;5030530;28;20063;-64
2022/06/14 04:30:17;;;;;;;21.10;18.13;;;;;;;32.82;32.62;99217.31;5030653;28;20026;-64
2022/06/14 04:32:43;;;;;;;19.55;16.67;;;;;;;33.72;31.11;99206.06;5030836;28;20436;-62
2022/06/14 04:35:22;;;;;;;19.65;17.48;;;;;;;34.85;30.19;99211.34;5030951;28;20045;-63
2022/06/14 04:37:53;;;;;;;19.00;15.05;;;;;;;35.73;28.11;99215.50;5030840;28;20037;-65
2022/06/14 04:40:42;;;;;;;17.67;15.88;;;;;;;36.81;27.67;99220.00;5030836;28;20030;-65
2022/06/14 04:43:13;;;;;;;22.00;16.92;;;;;;;37.01;25.67;99213.94;5030975;28;20033;-66
2022/06/14 04:45:57;;;;;;;18.55;15.63;;;;;;;37.82;25.07;99214.13;5031126;28;20068;-65
2022/06/14 04:48:33;;;;;;;18.13;16.33;;;;;;;37.98;24.21;99208.97;5030294;28;20029;-66
2022/06/14 04:51:13;;;;;;;16.15;14.52;;;;;;;38.68;24.00;99215.88;5031028;28;20091;-65
2022/06/14 04:53:49;;;;;;;19.52;15.05;;;;;;;38.95;22.75;99208.31;5030821;28;20083;-66
2022/06/14 04:56:23;;;;;;;15.60;14.02;;;;;;;39.77;21.90;99204.69;5030391;28;20029;-64
2022/06/14 04:59:05;;;;;;;19.23;15.40;;;;;;;40.52;22.24;99194.94;5030667;28;20033;-65
2022/06/14 05:01:43;;;;;;;16.73;15.10;;;;;;;40.89;20.80;99194.34;5030702;28;20262;-65
2022/06/14 05:04:25;;;;;;;15.63;13.40;;;;;;;41.57;20.42;99206.38;5030137;28;20026;-65
2022/06/14 05:07:02;;;;;;;15.52;13.93;;;;;;;41.57;19.56;99195.97;5030710;28;20060;-66
2022/06/14 05:09:37;;;;;;;15.77;14.18;;;;;;;42.26;18.98;99212.31;5031038;28;20084;-66
2022/06/14 05:12:24;;;;;;;15.57;13.98;;;;;;;43.42;17.87;99210.09;5030200;28;20061;-66
2022/06/14 05:15:10;;;;;;;19.85;13.95;;;;;;;43.77;18.00;99202.13;5030140;28;20493;-61
2022/06/14 05:17:44;;;;;;;13.20;11.90;;;;;;;44.06;17.50;99202.88;5030553;28;20508;-65
2022/06/14 05:20:24;;;;;;;13.50;12.10;;;;;;;44.67;16.93;99203.47;5030683;28;20033;-65
2022/06/14 05:22:54;;;;;;;14.15;11.70;;;;;;;44.86;15.58;99189.34;5029674;28;20551;-66
2022/06/14 05:25:20;;;;;;;16.13;13.68;;;;;;;45.05;15.30;99195.38;5029268;28;20076;-65
2022/06/14 05:28:10;;;;;;;13.70;12.50;;;;;;;44.51;16.77;99195.84;5030577;28;20044;-63
2022/06/14 05:30:57;;;;;;;13.32;12.05;;;;;;;43.66;17.17;99199.03;5030293;28;20389;-65
2022/06/14 05:33:38;;;;;;;13.32;11.93;;;;;;;43.92;16.64;99198.50;5030036;28;20043;-66
2022/06/14 05:36:19;;;;;;;13.48;12.18;;;;;;;44.27;16.54;99185.63;5030612;28;20041;-65
2022/06/14 05:39:29;;;;;;;13.73;11.88;;;;;;;44.80;16.71;99185.19;5030820;28;20040;-65
2022/06/14 05:42:05;;;;;;;13.77;11.00;;;;;;;42.50;18.05;99190.16;5030118;28;20103;-63
2022/06/14 05:44:43;;;;;;;12.32;11.00;;;;;;;41.00;19.39;99164.69;5033781;28;20118;-64
2022/06/14 05:47:14;;;;;;;12.73;11.35;;;;;;;41.51;18.97;99188.94;5034404;28;20057;-65
2022/06/14 05:49:46;;;;;;;13.10;11.90;;;;;;;41.65;18.63;99183.03;5033727;28;20029;-64
2022/06/14 05:52:22;;;;;;;12.27;11.05;;;;;;;42.41;18.44;99179.00;5033901;28;20029;-65
2022/06/14 05:55:10;;;;;;;11.60;10.40;;;;;;;42.70;18.32;99186.34;5032525;28;20037;-63
2022/06/14 05:57:51;;;;;;;12.27;10.25;;;;;;;41.47;18.85;99169.16;5034090;28;20033;-65
2022/06/14 06:00:35;;;;;;;12.93;11.60;;;;;;;40.67;19.97;99175.88;5033698;28;20041;-64
2022/06/14 06:03:11;;;;;;;14.23;10.88;;;;;;;39.70;21.06;99173.59;5032987;28;20136;-63
2022/06/14 06:05:45;;;;;;;13.85;12.05;;;;;;;38.97;21.58;99173.28;5033326;28;20033;-66
2022/06/14 06:08:32;;;;;;;13.98;12.10;;;;;;;38.23;22.57;99131.13;5033679;28;20116;-65
2022/06/14 06:11:16;;;;;;;14.68;11.48;;;;;;;37.77;23.52;99164.81;5033199;28;20043;-65
2022/06/14 06:13:54;;;;;;;15.10;10.82;;;;;;;38.56;22.47;99158.63;5033143;28;20030;-63
2022/06/14 06:19:20;;;;;;;9.18;6.75;;;;;;;40.54;19.44;99169.38;5033445;28;20053;-65
2022/06/14 06:21:46;;;;;;;12.75;6.20;;;;;;;40.89;18.93;99152.25;5033184;28;20029;-65
2022/06/14 06:24:33;;;;;;;7.20;6.33;;;;;;;41.87;18.42;99170.50;5032704;28;20053;-65
2022/06/14 06:27:08;;;;;;;8.13;7.30;;;;;;;41.79;18.63;99162.19;5033231;28;20297;-65
2022/06/14 06:29:52;;;;;;;7.72;6.93;;;;;;;41.78;18.28;99164.19;5032961;28;20036;-65
2022/06/14 06:32:20;;;;;;;8.48;6.70;;;;;;;42.31;17.24;99157.81;5033376;28;20076;-65
2022/06/14 06:34:48;;;;;;;8.65;5.88;;;;;;;42.83;16.82;99156.16;5032974;28;20080;-65
2022/06/14 06:37:19;;;;;;;6.97;6.28;;;;;;;44.23;15.54;99139.59;5032612;28;20038;-64
2022/06/14 06:40:01;;;;;;;7.50;6.03;;;;;;;45.18;14.67;99143.19;5033295;28;20061;-65
2022/06/14 06:42:39;;;;;;;7.43;5.43;;;;;;;46.37;14.05;99144.28;5032734;28;20052;-62
2022/06/14 06:45:09;;;;;;;8.38;5.68;;;;;;;46.22;13.89;99146.13;5032584;28;20080;-62
2022/06/14 06:48:05;;;;;;;7.00;5.82;;;;;;;46.03;14.37;99154.69;5032939;28;20056;-61
2022/06/14 06:50:41;;;;;;;7.95;5.95;;;;;;;45.59;14.28;99149.16;5032459;28;20061;-65
2022/06/14 06:53:06;;;;;;;8.05;6.30;;;;;;;45.96;13.75;99130.78;5032194;28;20031;-65
2022/06/14 06:55:47;;;;;;;6.88;6.18;;;;;;;46.85;13.04;99131.53;5032768;28;20037;-63
2022/06/14 06:58:26;;;;;;;9.10;5.65;;;;;;;47.15;13.01;99137.13;5032377;28;20033;-64
2022/06/14 07:00:57;;;;;;;6.82;5.53;;;;;;;44.78;14.63;99133.09;5032353;28;20033;-64
2022/06/14 07:03:48;;;;;;;7.68;6.20;;;;;;;42.51;17.59;99133.53;5032966;28;20036;-65
2022/06/14 07:06:19;;;;;;;6.93;6.07;;;;;;;40.93;18.25;99127.94;5029502;28;20041;-63
2022/06/14 07:08:56;;;;;;;7.03;6.32;;;;;;;41.02;18.71;99128.66;5032229;28;20489;-65
2022/06/14 07:11:33;;;;;;;6.78;5.85;;;;;;;38.66;20.72;99131.47;5032833;28;20133;-65
2022/06/14 07:14:05;;;;;;;8.30;6.45;;;;;;;36.45;23.21;99130.44;5032516;28;20045;-65
2022/06/14 07:16:40;;;;;;;8.02;6.57;;;;;;;35.04;25.18;99131.53;5031918;28;20496;-65
2022/06/14 07:19:24;;;;;;;10.02;7.25;;;;;;;33.88;27.08;99127.03;5032045;28;20035;-64
2022/06/14 07:21:58;;;;;;;9.90;6.72;;;;;;;33.13;28.48;99131.16;5032474;28;20450;-66
2022/06/14 07:24:34;;;;;;;10.50;6.32;;;;;;;32.53;28.55;99121.88;5032357;28;20180;-69
2022/06/14 07:27:11;;;;;;;12.35;4.95;;;;;;;32.13;27.82;99123.75;5031905;28;20056;-65
2022/06/14 07:29:43;;;;;;;7.70;4.57;;;;;;;32.02;28.72;99117.44;5031630;28;20392;-65
2022/06/14 07:32:33;;;;;;;7.20;4.47;;;;;;;35.74;23.60;99114.94;5032043;28;20025;-64
2022/06/14 07:35:00;;;;;;;6.15;4.85;;;;;;;39.30;19.23;99113.91;5031911;28;20029;-66
2022/06/14 07:37:38;;;;;;;5.00;3.72;;;;;;;42.95;15.55;99127.16;5031545;28;20041;-66
2022/06/14 07:40:30;;;;;;;5.55;3.33;;;;;;;46.57;12.92;99113.03;5031834;28;20025;-66
2022/06/14 07:43:11;;;;;;;5.43;3.50;;;;;;;48.81;11.17;99107.44;5032134;28;20550;-66
2022/06/14 07:45:48;;;;;;;4.80;3.63;;;;;;;49.39;10.72;99118.84;5031461;28;20482;-65
2022/06/14 07:48:37;;;;;;;3.55;3.03;;;;;;;49.39;10.58;99110.34;5031394;28;20854;-65
2022/06/14 07:51:31;;;;;;;4.57;3.03;;;;;;;47.78;11.72;99110.97;5031840;28;20029;-64
2022/06/14 07:54:21;;;;;;;3.67;2.80;;;;;;;44.09;13.62;99107.03;5029499;28;20063;-62
2022/06/14 07:56:55;;;;;;;5.05;3.03;;;;;;;40.90;16.30;99097.75;5031173;28;20060;-64
2022/06/14 07:59:30;;;;;;;3.65;3.35;;;;;;;38.62;18.02;99112.56;5031129;28;20037;-66
2022/06/14 08:02:08;;;;;;;4.22;3.83;;;;;;;37.02;20.17;99109.59;5031771;28;20080;-66
2022/06/14 08:04:41;;;;;;;4.15;3.65;;;;;;;36.60;21.17;99103.34;5031031;28;20026;-64
2022/06/14 08:07:15;;;;;;;4.18;3.50;;;;;;;38.58;18.87;99097.59;5030672;28;20120;-65
2022/06/14 08:10:06;;;;;;;4.63;3.67;;;;;;;41.02;16.93;99088.53;5030639;28;20373;-65
2022/06/14 08:12:51;;;;;;;3.97;3.60;;;;;;;43.65;14.78;99088.31;5030629;28;20041;-65
2022/06/14 08:15:17;;;;;;;3.90;3.33;;;;;;;44.68;12.55;99063.94;5031106;28;20516;-65
2022/06/14 08:18:08;;;;;;;5.95;3.53;;;;;;;45.83;12.75;99084.94;5030724;28;20073;-68
2022/06/14 08:20:46;;;;;;;4.95;3.92;;;;;;;45.74;12.19;99095.69;5062946;28;20438;-66
2022/06/14 08:23:44;;;;;;;3.20;2.88;;;;;;;44.78;12.96;99085.13;5030351;28;20045;-65
2022/06/14 08:26:16;;;;;;;5.65;3.35;;;;;;;42.51;14.41;99084.88;5026105;28;20075;-66
2022/06/14 08:28:49;;;;;;;3.30;2.97;;;;;;;40.31;16.17;99080.78;5031008;28;20033;-66
2022/06/14 08:31:30;;;;;;;2.85;2.65;;;;;;;38.65;17.13;99099.06;5030548;28;20025;-65
2022/06/14 08:34:13;;;;;;;4.35;3.08;;;;;;;37.16;18.46;99094.72;5031258;28;20100;-65
2022/06/14 08:36:51;;;;;;;3.85;3.25;;;;;;;35.52;20.45;99067.53;5030587;28;20045;-65
2022/06/14 08:39:34;;;;;;;4.07;3.65;;;;;;;34.55;22.21;99100.31;5030411;28;20048;-67
2022/06/14 08:42:24;;;;;;;4.57;4.13;;;;;;;33.61;23.84;99089.63;5030586;28;20028;-65
2022/06/14 08:45:15;;;;;;;4.13;3.83;;;;;;;33.27;23.78;99071.09;5028926;28;20049;-65
2022/06/14 08:48:28;;;;;;;5.53;3.75;;;;;;;33.40;23.85;99079.84;5030480;28;20343;-65
2022/06/14 08:51:10;;;;;;;4.40;3.25;;;;;;;33.01;24.25;99090.75;5029026;28;20042;-66
2022/06/14 08:54:07;;;;;;;3.83;3.53;;;;;;;32.82;25.02;99078.72;5030154;28;20095;-64
2022/06/14 08:57:04;;;;;;;4.88;3.63;;;;;;;32.77;25.00;99071.28;5029963;28;20108;-66
2022/06/14 08:59:41;;;;;;;7.03;3.65;;;;;;;32.70;25.07;99077.16;5030660;28;20034;-65
2022/06/14 09:02:36;;;;;;;3.55;3.25;;;;;;;32.81;24.84;99074.31;5030403;28;20038;-64
2022/06/14 09:05:11;;;;;;;3.75;3.45;;;;;;;32.53;25.34;99068.41;5030519;28;20037;-63
2022/06/14 09:07:45;;;;;;;4.10;3.70;;;;;;;32.23;26.34;99068.34;5030830;28;20045;-65
2022/06/14 09:10:36;;;;;;;5.33;3.63;;;;;;;32.01;26.78;99065.94;5030398;28;20388;-66
2022/06/14 09:13:23;;;;;;;5.85;4.40;;;;;;;31.54;27.82;99059.78;5030067;28;20030;-66
2022/06/14 09:16:00;;;;;;;5.30;4.10;;;;;;;31.54;27.83;99063.38;5030772;28;20044;-65
2022/06/14 09:18:45;;;;;;;5.68;4.18;;;;;;;31.22;27.71;99061.81;5034583;28;20466;-64
2022/06/14 09:21:16;;;;;;;5.38;4.15;;;;;;;30.88;28.72;99054.09;5034493;28;20116;-64
2022/06/14 09:23:45;;;;;;;5.18;4.60;;;;;;;30.76;29.29;99044.16;5033736;28;20061;-67
2022/06/14 09:26:38;;;;;;;5.47;4.15;;;;;;;31.01;28.70;99033.38;5034278;28;20044;-67
2022/06/14 09:29:28;;;;;;;5.97;3.97;;;;;;;31.39;28.34;99055.94;5034530;28;20033;-69
2022/06/14 09:32:15;;;;;;;5.95;3.90;;;;;;;31.36;27.62;99040.78;5033852;28;20036;-68
2022/06/14 09:34:49;;;;;;;6.82;3.92;;;;;;;30.98;28.59;99033.88;5034010;28;20026;-66
2022/06/14 09:37:48;;;;;;;6.38;4.30;;;;;;;30.79;28.56;99015.97;5034178;28;20043;-67
2022/06/14 09:40:32;;;;;;;5.20;3.78;;;;;;;30.55;29.22;99003.81;5029717;28;20045;-67
2022/06/14 09:43:08;;;;;;;4.53;3.97;;;;;;;30.51;29.47;98995.25;5033152;28;20041;-64
2022/06/14 09:45:42;;;;;;;4.75;4.10;;;;;;;30.63;29.11;99000.53;5034070;28;20049;-64
2022/06/14 09:48:50;;;;;;;3.83;3.53;;;;;;;30.71;28.48;99002.72;5034517;28;20037;-63
2022/06/14 09:51:30;;;;;;;5.10;3.80;;;;;;;30.47;28.95;99006.03;5033953;28;20118;-64
2022/06/14 09:54:29;;;;;;;4.82;3.83;;;;;;;30.32;29.54;98994.97;5033723;28;20029;-64
2022/06/14 09:57:20;;;;;;;6.70;4.40;;;;;;;30.33;29.41;98996.63;5033980;28;20149;-64
2022/06/14 09:59:57;;;;;;;5.97;3.90;;;;;;;30.25;29.95;98997.19;5034010;28;20053;-63
2022/06/14 10:02:48;;;;;;;5.35;3.80;;;;;;;30.32;29.57;98994.97;5033741;28;20059;-64
2022/06/14 10:05:33;;;;;;;4.28;3.97;;;;;;;30.10;29.31;98975.91;5033444;28;20040;-64
2022/06/14 10:08:08;;;;;;;5.07;3.55;;;;;;;30.19;28.81;98979.78;5033845;28;20029;-64
2022/06/14 10:10:46;;;;;;;4.82;3.58;;;;;;;29.92;28.32;98978.91;5033461;28;20468;-62
2022/06/14 10:13:30;;;;;;;6.25;3.58;;;;;;;29.59;27.75;98982.94;5033224;28;20026;-63
2022/06/14 10:16:32;;;;;;;3.55;3.20;;;;;;;29.46;28.83;98979.59;5033542;28;20337;-63
2022/06/14 10:19:18;;;;;;;4.10;3.80;;;;;;;29.22;29.28;98980.00;5029729;28;20042;-63
2022/06/14 10:21:50;;;;;;;4.93;3.58;;;;;;;29.16;29.54;98974.72;5033327;28;20033;-64
2022/06/14 10:24:40;;;;;;;3.72;3.30;;;;;;;29.29;29.21;98963.22;5033435;28;20049;-63
2022/06/14 10:30:44;;;;;;;4.95;2.97;;;;;;;29.97;28.05;98971.72;5032845;28;20068;-63
2022/06/14 10:33:43;;;;;;;3.63;3.30;;;;;;;30.17;27.46;98982.81;5031595;28;20139;-63
2022/06/14 10:36:26;;;;;;;4.10;3.35;;;;;;;30.06;27.16;98961.81;5032896;28;20559;-65
2022/06/14 10:38:54;;;;;;;4.30;3.50;;;;;;;29.64;28.21;98953.44;5033276;28;20029;-62
2022/06/14 10:41:29;;;;;;;9.43;3.70;;;;;;;29.41;28.46;98960.28;5032810;28;20033;-63
2022/06/14 10:44:14;;;;;;;5.68;3.55;;;;;;;29.20;29.11;98948.31;5032760;28;20037;-63
2022/06/14 10:47:05;;;;;;;5.55;3.65;;;;;;;29.40;28.79;98949.47;5033133;28;20041;-63
2022/06/14 10:49:52;;;;;;;3.90;3.15;;;;;;;29.58;28.05;98931.66;5032406;28;20052;-61
2022/06/14 10:52:31;;;;;;;4.05;3.50;;;;;;;29.64;27.58;98944.34;5032449;28;20162;-62
2022/06/14 10:55:31;;;;;;;3.80;3.10;;;;;;;29.58;27.20;98943.50;5033026;28;20091;-62
2022/06/14 10:58:12;;;;;;;4.60;3.30;;;;;;;29.58;26.98;98948.19;5019969;28;20037;-61
2022/06/14 11:01:23;;;;;;;3.50;3.20;;;;;;;29.57;27.31;98935.50;5032440;28;20048;-62
2022/06/14 11:03:54;;;;;;;6.10;3.95;;;;;;;29.37;28.04;98931.56;5032710;28;20060;-62
2022/06/14 11:06:52;;;;;;;4.00;3.22;;;;;;;29.46;27.56;98929.13;5032288;28;20053;-61
2022/06/14 11:09:19;;;;;;;8.73;3.75;;;;;;;29.28;27.76;98933.16;5023330;28;20045;-61
2022/06/14 11:12:36;;;;;;;3.97;3.67;;;;;;;29.27;27.82;98932.34;5032726;28;20108;-60
2022/06/14 11:15:20;;;;;;;4.88;3.50;;;;;;;29.01;28.46;98923.97;5027020;28;20045;-61
2022/06/14 11:17:49;;;;;;;4.82;3.40;;;;;;;28.97;28.70;98930.28;5032067;28;20041;-60
2022/06/14 11:20:14;;;;;;;4.88;3.75;;;;;;;28.78;29.12;98906.75;5031889;28;20072;-62
2022/06/14 11:22:42;;;;;;;3.40;3.10;;;;;;;28.59;28.55;98916.53;5032590;28;20096;-61
2022/06/14 11:25:22;;;;;;;4.70;2.88;;;;;;;28.44;29.06;98928.28;5032407;28;20069;-62
2022/06/14 11:27:50;;;;;;;3.20;2.78;;;;;;;28.09;29.09;98916.69;5031900;28;20060;-63
2022/06/14 11:30:34;;;;;;;4.95;3.17;;;;;;;28.12;28.71;98918.09;5032006;28;20121;-61
2022/06/14 11:33:18;;;;;;;6.53;3.22;;;;;;;28.05;29.10;98916.38;5032544;28;20496;-61
2022/06/14 11:36:03;;;;;;;3.40;3.10;;;;;;;28.16;29.13;98917.31;5031967;28;20034;-64
2022/06/14 11:38:39;;;;;;;4.87;3.00;;;;;;;28.05;29.63;98913.63;5031802;28;20092;-62
2022/06/14 11:41:08;;;;;;;3.60;3.17;;;;;;;28.10;29.78;98915.59;5032243;28;20030;-62
2022/06/14 11:43:55;;;;;;;5.93;3.15;;;;;;;28.12;29.42;98899.66;5032447;28;20404;-62
2022/06/14 11:46:38;;;;;;;3.22;2.97;;;;;;;28.34;28.96;98901.50;5031482;28;20116;-63
2022/06/14 11:49:14;;;;;;;5.25;3.17;;;;;;;28.38;29.19;98905.38;5031592;28;20037;-63
2022/06/14 11:51:42;;;;;;;6.55;3.47;;;;;;;28.29;29.58;98890.47;5032234;28;20041;-63
2022/06/14 11:54:19;;;;;;;5.93;3.30;;;;;;;28.38;29.26;98902.63;5031890;28;20044;-63
2022/06/14 11:57:03;;;;;;;5.60;3.08;;;;;;;28.40;28.86;98902.38;5030976;28;20041;-64
2022/06/14 11:59:41;;;;;;;4.07;2.90;;;;;;;28.25;28.72;98906.66;5031130;28;20139;-62
2022/06/14 12:02:37;;;;;;;2.83;2.53;;;;;;;28.34;28.64;98899.59;5031676;28;20052;-62
2022/06/14 12:05:24;;;;;;;4.78;3.05;;;;;;;28.44;28.75;98896.06;5031220;28;20474;-63
2022/06/14 12:07:57;;;;;;;4.03;2.95;;;;;;;28.03;28.88;98832.47;5031160;28;20079;-63
2022/06/14 12:10:47;;;;;;;6.13;3.20;;;;;;;28.47;28.66;98897.47;5031160;28;20029;-65
2022/06/14 12:13:37;;;;;;;3.00;2.58;;;;;;;28.36;28.58;98885.56;5031021;28;20448;-64
2022/06/14 12:16:11;;;;;;;4.25;3.05;;;;;;;28.48;28.91;98883.44;5030682;28;20033;-65
2022/06/14 12:18:41;;;;;;;5.70;3.05;;;;;;;28.56;28.74;98895.84;5031387;28;20045;-65
2022/06/14 12:21:28;;;;;;;4.40;3.05;;;;;;;28.68;28.87;98892.91;5031231;28;20186;-65
2022/06/14 12:24:00;;;;;;;6.05;3.03;;;;;;;28.66;28.82;98884.06;5030540;28;20572;-64
2022/06/14 12:26:35;;;;;;;3.28;2.97;;;;;;;28.73;28.83;98862.66;5031125;28;20046;-64
2022/06/14 12:29:09;;;;;;;4.97;2.92;;;;;;;28.99;28.76;98882.09;5030566;28;20484;-65
2022/06/14 12:31:44;;;;;;;5.60;3.10;;;;;;;29.09;28.43;98859.25;5031243;28;20124;-65